createdAt,value
2019-02-16T00:02:16.643Z,60.87
2019-02-16T00:05:20.999Z,60.47
2019-02-16T00:08:25.426Z,59.83
2019-02-16T00:11:30.691Z,59.17
2019-02-16T00:14:35.436Z,60.33
2019-02-16T00:17:39.776Z,58.33
2019-02-16T00:20:44.165Z,58.10
2019-02-16T00:23:48.621Z,58.57
2019-02-16T00:26:53.018Z,58.03
2019-02-16T00:29:57.313Z,56.77
2019-02-16T00:33:01.756Z,58.70
2019-02-16T00:36:06.097Z,57.57
2019-02-16T00:39:10.618Z,57.07
2019-02-16T00:42:14.980Z,57.53
2019-02-16T00:45:19.281Z,57.53
2019-02-16T00:48:23.706Z,56.17
2019-02-16T00:51:28.088Z,55.47
2019-02-16T00:54:32.442Z,55.03
2019-02-16T00:57:36.820Z,55.60
2019-02-16T01:00:41.087Z,57.37
2019-02-16T01:03:45.447Z,55.40
2019-02-16T01:06:49.750Z,55.17
2019-02-16T01:09:53.973Z,54.90
2019-02-16T01:12:58.454Z,54.37
2019-02-16T01:16:03.788Z,51.47
2019-02-16T01:19:08.138Z,54.27
2019-02-16T01:22:12.451Z,53.20
2019-02-16T01:25:16.740Z,51.73
2019-02-16T01:28:21.027Z,52.93
2019-02-16T01:31:25.373Z,50.83
2019-02-16T01:34:29.741Z,50.30
2019-02-16T01:37:34.012Z,51.73
2019-02-16T01:40:38.416Z,52.13
2019-02-16T01:43:42.683Z,53.33
2019-02-16T01:46:46.981Z,51.77
2019-02-16T01:49:51.169Z,52.13
2019-02-16T01:52:55.464Z,51.17
2019-02-16T01:55:59.800Z,49.20
2019-02-16T01:59:04.097Z,48.90
2019-02-16T02:02:08.368Z,51.23
2019-02-16T02:05:12.749Z,49.97
2019-02-16T02:08:17.191Z,48.33
2019-02-16T02:11:21.487Z,50.23
2019-02-16T02:14:25.765Z,48.10
2019-02-16T02:17:30.069Z,49.47
2019-02-16T02:20:34.336Z,48.97
2019-02-16T02:23:38.653Z,49.73
2019-02-16T02:26:42.983Z,50.63
2019-02-16T02:29:47.297Z,49.80
2019-02-16T02:32:51.705Z,47.97
2019-02-16T02:35:56.041Z,48.80
2019-02-16T02:39:00.305Z,48.60
2019-02-16T02:42:04.607Z,48.07
2019-02-16T02:45:10.033Z,47.43
2019-02-16T02:48:14.571Z,47.00
2019-02-16T02:51:18.849Z,47.87
2019-02-16T02:54:23.155Z,46.47
2019-02-16T02:57:27.501Z,45.10
2019-02-16T03:00:31.890Z,46.90
2019-02-16T03:03:36.155Z,46.73
2019-02-16T03:06:40.545Z,45.10
2019-02-16T03:09:44.813Z,46.80
2019-02-16T03:12:49.032Z,44.07
2019-02-16T03:15:53.377Z,44.33
2019-02-16T03:18:57.825Z,45.23
2019-02-16T03:22:03.233Z,43.70
2019-02-16T03:25:08.140Z,44.07
2019-02-16T03:28:39.355Z,43.27
2019-02-16T03:32:33.826Z,45.80
2019-02-16T03:36:16.431Z,42.47
2019-02-16T03:39:27.593Z,41.07
2019-02-16T03:42:31.955Z,43.07
2019-02-16T03:45:36.263Z,40.97
2019-02-16T03:48:40.614Z,42.17
2019-02-16T03:51:44.988Z,42.23
2019-02-16T03:54:49.323Z,41.60
2019-02-16T03:57:53.620Z,39.87
2019-02-16T04:00:57.969Z,40.50
2019-02-16T04:04:02.261Z,39.00
2019-02-16T04:07:06.711Z,40.73
2019-02-16T04:10:10.988Z,43.60
2019-02-16T04:13:15.261Z,46.90
2019-02-16T04:16:19.719Z,48.50
2019-02-16T04:19:24.095Z,47.27
2019-02-16T04:22:28.385Z,48.27
2019-02-16T04:25:32.756Z,44.63
2019-02-16T04:28:37.257Z,45.10
2019-02-16T04:31:41.592Z,43.70
2019-02-16T04:34:45.964Z,42.17
2019-02-16T04:37:50.234Z,42.53
2019-02-16T04:40:54.536Z,42.33
2019-02-16T04:43:58.815Z,39.37
2019-02-16T04:47:03.129Z,38.97
2019-02-16T04:50:07.421Z,38.60
2019-02-16T04:53:11.789Z,37.27
2019-02-16T04:56:16.128Z,38.17
2019-02-16T04:59:20.492Z,37.10
2019-02-16T05:02:24.814Z,38.27
2019-02-16T05:05:29.144Z,35.93
2019-02-16T05:08:33.486Z,36.03
2019-02-16T05:11:37.792Z,36.57
2019-02-16T05:14:42.077Z,37.23
2019-02-16T05:17:47.592Z,35.70
2019-02-16T05:20:51.874Z,36.87
2019-02-16T05:23:56.115Z,34.97
2019-02-16T05:27:00.480Z,34.10
2019-02-16T05:30:05.272Z,34.37
2019-02-16T05:33:09.693Z,35.50
2019-02-16T05:36:14.063Z,35.53
2019-02-16T05:39:18.339Z,36.53
2019-02-16T05:42:22.722Z,34.63
2019-02-16T05:45:27.056Z,35.80
2019-02-16T05:48:31.275Z,35.93
2019-02-16T05:51:35.775Z,35.27
2019-02-16T05:54:40.143Z,36.90
2019-02-16T05:57:44.426Z,35.83
2019-02-16T06:00:48.811Z,35.43
2019-02-16T06:03:53.222Z,35.73
2019-02-16T06:06:57.524Z,36.47
2019-02-16T06:10:01.802Z,36.80
2019-02-16T06:13:06.182Z,35.73
2019-02-16T06:16:10.517Z,36.07
2019-02-16T06:19:14.926Z,38.93
2019-02-16T06:22:19.271Z,38.03
2019-02-16T06:25:23.589Z,40.23
2019-02-16T06:28:27.947Z,41.93
2019-02-16T06:31:32.267Z,44.93
2019-02-16T06:34:36.669Z,43.20
2019-02-16T06:37:40.982Z,43.67
2019-02-16T06:40:45.337Z,44.93
2019-02-16T06:43:49.648Z,43.90
2019-02-16T06:46:53.912Z,42.93
2019-02-16T06:49:58.344Z,43.20
2019-02-16T06:53:02.616Z,44.77
2019-02-16T06:56:34.999Z,41.73
2019-02-16T06:59:39.369Z,40.77
2019-02-16T07:02:43.740Z,41.40
2019-02-16T07:05:48.063Z,41.70
2019-02-16T07:08:52.405Z,40.33
2019-02-16T07:11:56.753Z,39.60
2019-02-16T07:15:01.154Z,40.63
2019-02-16T07:18:30.348Z,39.37
2019-02-16T07:21:35.497Z,38.47
2019-02-16T07:24:39.807Z,37.87
2019-02-16T07:27:44.172Z,40.47
2019-02-16T07:30:48.432Z,39.73
2019-02-16T07:33:52.738Z,39.07
2019-02-16T07:36:57.039Z,37.10
2019-02-16T07:40:01.330Z,37.23
2019-02-16T07:43:06.112Z,38.80
2019-02-16T07:46:16.560Z,39.60
2019-02-16T07:49:36.518Z,38.00
2019-02-16T07:52:51.470Z,38.17
2019-02-16T07:56:18.971Z,36.80
2019-02-16T07:59:45.085Z,38.83
2019-02-16T08:03:03.011Z,38.87
2019-02-16T08:06:35.053Z,37.97
2019-02-16T08:09:58.309Z,37.77
2019-02-16T08:13:19.768Z,39.40
2019-02-16T08:16:41.995Z,38.03
2019-02-16T08:20:05.323Z,38.53
2019-02-16T08:23:17.639Z,39.33
2019-02-16T08:26:49.994Z,39.23
2019-02-16T08:30:19.344Z,37.67
2019-02-16T08:33:48.702Z,38.23
2019-02-16T08:37:10.864Z,36.50
2019-02-16T08:40:49.264Z,36.43
2019-02-16T08:44:00.417Z,36.20
2019-02-16T08:47:23.666Z,36.40
2019-02-16T08:50:40.001Z,35.77
2019-02-16T08:54:02.152Z,34.23
2019-02-16T08:57:34.295Z,34.60
2019-02-16T09:01:00.407Z,34.83
2019-02-16T09:04:22.657Z,32.90
2019-02-16T09:07:45.998Z,35.20
2019-02-16T09:11:07.938Z,32.03
2019-02-16T09:14:24.418Z,31.23
2019-02-16T09:18:00.021Z,33.70
2019-02-16T09:21:32.233Z,33.23
2019-02-16T09:24:59.984Z,31.10
2019-02-16T09:28:26.525Z,31.57
2019-02-16T09:32:01.863Z,30.70
2019-02-16T09:35:34.564Z,31.03
2019-02-16T09:38:54.918Z,28.23
2019-02-16T09:42:12.765Z,28.47
2019-02-16T09:45:39.122Z,28.37
2019-02-16T09:49:01.040Z,26.97
2019-02-16T09:52:22.991Z,27.60
2019-02-16T09:55:35.156Z,25.43
2019-02-16T09:58:53.794Z,23.97
2019-02-16T10:02:20.171Z,23.97
2019-02-16T10:05:46.150Z,22.93
2019-02-16T10:09:09.512Z,21.27
2019-02-16T10:12:31.613Z,20.70
2019-02-16T10:16:04.152Z,20.47
2019-02-16T10:19:56.121Z,19.27
2019-02-16T10:23:31.410Z,18.33
2019-02-16T10:26:57.632Z,17.43
2019-02-16T10:30:09.141Z,15.90
2019-02-16T10:33:32.430Z,15.50
2019-02-16T10:36:58.571Z,14.60
2019-02-16T10:40:30.901Z,15.00
2019-02-16T10:43:57.100Z,15.17
2019-02-16T10:47:18.066Z,14.43
2019-02-16T10:50:37.865Z,14.83
2019-02-16T10:54:04.275Z,15.67
2019-02-16T10:57:27.604Z,14.13
2019-02-16T11:00:57.234Z,12.77
2019-02-16T11:04:09.635Z,14.13
2019-02-16T11:07:33.062Z,13.20
2019-02-16T11:10:52.518Z,12.83
2019-02-16T11:14:06.106Z,12.63
2019-02-16T11:17:36.637Z,12.07
2019-02-16T11:20:53.822Z,12.33
2019-02-16T11:24:23.230Z,11.87
2019-02-16T11:27:55.316Z,11.27
2019-02-16T11:31:34.445Z,11.77
2019-02-16T11:34:49.992Z,11.47
2019-02-16T11:38:19.168Z,11.70
2019-02-16T11:41:34.328Z,12.00
2019-02-16T11:44:50.519Z,11.83
2019-02-16T11:48:22.925Z,11.30
2019-02-16T11:51:41.354Z,11.20
2019-02-16T11:55:07.682Z,11.70
2019-02-16T11:58:36.451Z,11.53
2019-02-16T12:01:52.175Z,11.03
2019-02-16T12:05:01.214Z,10.20
2019-02-16T12:08:17.962Z,10.83
2019-02-16T12:11:38.570Z,10.90
2019-02-16T12:15:10.994Z,10.67
2019-02-16T12:18:26.988Z,10.63
2019-02-16T12:21:50.091Z,10.90
2019-02-16T12:25:25.479Z,10.47
2019-02-16T12:28:48.108Z,9.53
2019-02-16T12:32:14.556Z,9.17
2019-02-16T12:35:43.866Z,10.73
2019-02-16T12:39:07.543Z,11.03
2019-02-16T12:42:29.577Z,10.70
2019-02-16T12:45:55.605Z,10.03
2019-02-16T12:49:24.488Z,10.53
2019-02-16T12:52:51.350Z,10.87
2019-02-16T12:56:20.587Z,11.27
2019-02-16T12:59:50.560Z,12.50
2019-02-16T13:03:13.448Z,10.80
2019-02-16T13:06:36.365Z,12.73
2019-02-16T13:10:01.939Z,13.07
2019-02-16T13:13:17.508Z,13.10
2019-02-16T13:16:33.653Z,12.07
2019-02-16T13:19:55.733Z,12.70
2019-02-16T13:23:11.725Z,12.77
2019-02-16T13:26:35.008Z,12.20
2019-02-16T13:29:57.883Z,12.10
2019-02-16T13:33:24.275Z,11.80
2019-02-16T13:36:35.720Z,11.80
2019-02-16T13:39:46.589Z,11.17
2019-02-16T13:43:03.918Z,12.10
2019-02-16T13:46:24.209Z,10.87
2019-02-16T13:49:37.696Z,10.80
2019-02-16T13:53:00.750Z,9.93
2019-02-16T13:56:12.285Z,10.10
2019-02-16T13:59:38.376Z,10.77
2019-02-16T14:02:50.220Z,10.87
2019-02-16T14:06:16.413Z,10.73
2019-02-16T14:09:30.679Z,10.00
2019-02-16T14:13:00.036Z,9.80
2019-02-16T14:16:12.238Z,9.50
2019-02-16T14:19:16.628Z,9.33
2019-02-16T14:22:20.909Z,9.10
2019-02-16T14:25:42.352Z,10.10
2019-02-16T14:28:39.676Z,10.10
2019-02-16T14:31:44.055Z,10.40
2019-02-16T14:34:48.341Z,9.50
2019-02-16T14:38:01.292Z,9.30
2019-02-16T14:41:05.554Z,9.17
2019-02-16T14:44:09.945Z,9.03
2019-02-16T14:47:14.220Z,9.17
2019-02-16T14:50:18.663Z,8.77
2019-02-16T14:53:22.944Z,9.10
2019-02-16T14:56:27.268Z,9.43
2019-02-16T14:59:31.542Z,8.87
2019-02-16T15:02:36.045Z,9.57
2019-02-16T15:05:40.477Z,9.47
2019-02-16T15:08:44.830Z,9.20
2019-02-16T15:11:49.163Z,8.67
2019-02-16T15:14:53.482Z,9.10
2019-02-16T15:17:58.225Z,9.73
2019-02-16T15:21:02.752Z,11.37
2019-02-16T15:24:07.124Z,11.70
2019-02-16T15:27:11.688Z,11.90
2019-02-16T15:30:17.246Z,12.03
2019-02-16T15:33:21.644Z,11.53
2019-02-16T15:36:26.015Z,11.70
2019-02-16T15:39:42.441Z,11.60
2019-02-16T15:42:46.833Z,12.50
2019-02-16T15:45:51.183Z,11.87
2019-02-16T15:48:55.556Z,12.60
2019-02-16T15:51:59.883Z,12.03
2019-02-16T15:55:04.177Z,12.17
2019-02-16T15:58:08.583Z,12.80
2019-02-16T16:01:13.354Z,13.67
2019-02-16T16:04:18.166Z,13.53
2019-02-16T16:07:22.576Z,13.53
2019-02-16T16:10:31.783Z,14.87
2019-02-16T16:13:45.004Z,16.50
2019-02-16T16:17:09.440Z,20.57
2019-02-16T16:20:35.760Z,22.33
2019-02-16T16:24:17.309Z,27.30
2019-02-16T16:27:30.386Z,33.23
2019-02-16T16:30:50.147Z,35.70
2019-02-16T16:34:25.797Z,37.20
2019-02-16T16:37:55.310Z,39.20
2019-02-16T16:41:12.423Z,40.47
2019-02-16T16:44:30.545Z,43.40
2019-02-16T16:47:55.761Z,43.27
2019-02-16T16:51:17.782Z,45.27
2019-02-16T16:54:40.029Z,49.80
2019-02-16T16:58:03.137Z,51.73
2019-02-16T17:01:32.686Z,51.47
2019-02-16T17:04:46.262Z,51.27
2019-02-16T17:08:03.592Z,49.33
2019-02-16T17:11:25.805Z,50.43
2019-02-16T17:14:51.791Z,49.57
2019-02-16T17:18:21.145Z,52.10
2019-02-16T17:21:37.379Z,54.63
2019-02-16T17:25:10.678Z,52.70
2019-02-16T17:28:32.711Z,54.10
2019-02-16T17:31:43.983Z,50.33
2019-02-16T17:35:02.341Z,50.40
2019-02-16T17:38:25.680Z,48.57
2019-02-16T17:41:51.994Z,49.90
2019-02-16T17:45:21.150Z,48.10
2019-02-16T17:48:50.303Z,51.50
2019-02-16T17:52:19.484Z,52.07
2019-02-16T17:55:31.777Z,56.63
2019-02-16T17:58:55.249Z,62.60
2019-02-16T18:02:19.732Z,66.13
2019-02-16T18:05:42.098Z,67.37
2019-02-16T18:09:05.413Z,71.43
2019-02-16T18:12:17.117Z,74.67
2019-02-16T18:15:43.327Z,76.00
2019-02-16T18:18:57.332Z,71.33
2019-02-16T18:22:20.659Z,73.07
2019-02-16T18:25:37.568Z,71.20
2019-02-16T18:28:57.316Z,71.13
2019-02-16T18:32:16.739Z,67.97
2019-02-16T18:35:46.326Z,65.73
2019-02-16T18:38:57.846Z,62.57
2019-02-16T18:42:13.656Z,63.27
2019-02-16T18:45:46.346Z,62.27
2019-02-16T18:49:15.556Z,65.13
2019-02-16T18:52:37.490Z,68.93
2019-02-16T18:56:14.456Z,76.47
2019-02-16T18:59:47.105Z,77.87
2019-02-16T19:03:04.163Z,83.27
2019-02-16T19:06:45.687Z,86.67
2019-02-16T19:10:00.039Z,87.63
2019-02-16T19:13:23.428Z,91.53
2019-02-16T19:16:49.757Z,93.53
2019-02-16T19:20:31.782Z,95.20
2019-02-16T19:23:57.475Z,99.50
2019-02-16T19:27:16.669Z,102.10
2019-02-16T19:30:44.976Z,101.30
2019-02-16T19:34:07.189Z,99.73
2019-02-16T19:37:39.630Z,96.43
2019-02-16T19:40:55.409Z,98.83
2019-02-16T19:44:11.221Z,98.73
2019-02-16T19:47:34.583Z,96.13
2019-02-16T19:50:56.371Z,94.27
2019-02-16T19:54:25.338Z,96.50
2019-02-16T19:57:47.553Z,100.50
2019-02-16T20:01:10.311Z,100.50
2019-02-16T20:04:33.658Z,103.13
2019-02-16T20:07:49.483Z,102.93
2019-02-16T20:11:12.812Z,104.47
2019-02-16T20:14:26.450Z,103.97
2019-02-16T20:18:12.748Z,104.17
2019-02-16T20:22:02.620Z,108.50
2019-02-16T20:25:35.376Z,110.87
2019-02-16T20:28:47.394Z,111.80
2019-02-16T20:32:15.607Z,114.17
2019-02-16T20:35:37.476Z,114.00
2019-02-16T20:39:07.382Z,112.63
2019-02-16T20:42:34.009Z,113.47
2019-02-16T20:46:04.383Z,117.03
2019-02-16T20:49:34.062Z,113.07
2019-02-16T20:52:48.835Z,112.23
2019-02-16T20:56:12.210Z,115.07
2019-02-16T20:59:44.869Z,112.47
2019-02-16T21:03:02.299Z,115.13
2019-02-16T21:06:28.385Z,117.47
2019-02-16T21:09:51.673Z,116.60
2019-02-16T21:13:18.056Z,119.63
2019-02-16T21:16:40.262Z,119.73
2019-02-16T21:20:01.000Z,122.10
2019-02-16T21:23:39.226Z,121.27
2019-02-16T21:27:03.059Z,121.37
2019-02-16T21:30:25.988Z,122.40
2019-02-16T21:33:49.298Z,153.57
2019-02-16T21:37:21.863Z,152.50
2019-02-16T21:40:37.096Z,142.47
2019-02-16T21:44:15.848Z,151.47
2019-02-16T21:47:41.897Z,147.27
2019-02-16T21:51:07.991Z,150.60
2019-02-16T21:54:14.352Z,144.57
2019-02-16T21:57:35.427Z,143.00
2019-02-16T22:01:06.703Z,139.67
2019-02-16T22:04:17.929Z,137.23
2019-02-16T22:07:44.076Z,138.53
2019-02-16T22:11:13.475Z,136.47
2019-02-16T22:14:17.828Z,137.60
2019-02-16T22:17:22.220Z,142.20
2019-02-16T22:20:26.512Z,144.47
2019-02-16T22:23:30.900Z,140.07
2019-02-16T22:26:35.189Z,150.27
2019-02-16T22:29:39.652Z,162.37
2019-02-16T22:32:44.470Z,165.57
2019-02-16T22:35:49.004Z,169.73
2019-02-16T22:38:53.459Z,171.13
2019-02-16T22:41:57.843Z,163.63
2019-02-16T22:45:02.339Z,158.67
2019-02-16T22:48:06.712Z,155.23
2019-02-16T22:51:12.460Z,152.10
2019-02-16T22:54:17.100Z,151.50
2019-02-16T22:57:21.407Z,144.63
2019-02-16T23:01:00.200Z,143.53
2019-02-16T23:04:04.514Z,139.43
2019-02-16T23:07:08.951Z,135.20
2019-02-16T23:10:13.264Z,132.67
2019-02-16T23:13:17.644Z,129.13
2019-02-16T23:16:21.997Z,128.10
2019-02-16T23:19:26.433Z,129.60
2019-02-16T23:22:30.794Z,125.43
2019-02-16T23:25:35.204Z,123.03
2019-02-16T23:28:39.491Z,123.77
2019-02-16T23:31:43.854Z,118.67
2019-02-16T23:34:48.148Z,116.57
2019-02-16T23:37:52.529Z,116.77
2019-02-16T23:40:56.803Z,115.50
2019-02-16T23:44:01.108Z,109.97
2019-02-16T23:47:05.504Z,111.23
2019-02-16T23:50:09.827Z,105.53
2019-02-16T23:53:14.184Z,107.07
2019-02-16T23:56:18.543Z,102.07
2019-02-16T23:59:22.829Z,97.50
